sensor_id;sensor_type;location;lat;lon;timestamp;temperature;humidity
17080;DHT22;8655;57.106;-2.088;2022-07-01T00:01:58;21.30;63.60
17080;DHT22;8655;57.106;-2.088;2022-07-01T00:04:23;21.30;63.60
17080;DHT22;8655;57.106;-2.088;2022-07-01T00:06:56;21.30;63.60
17080;DHT22;8655;57.106;-2.088;2022-07-01T00:09:22;21.30;63.50
17080;DHT22;8655;57.106;-2.088;2022-07-01T00:11:48;21.30;63.50
17080;DHT22;8655;57.106;-2.088;2022-07-01T00:14:14;21.30;63.50
17080;DHT22;8655;57.106;-2.088;2022-07-01T00:16:40;21.30;63.50
17080;DHT22;8655;57.106;-2.088;2022-07-01T00:19:06;21.30;63.50
17080;DHT22;8655;57.106;-2.088;2022-07-01T00:21:32;21.30;63.60
17080;DHT22;8655;57.106;-2.088;2022-07-01T00:23:58;21.30;63.50
17080;DHT22;8655;57.106;-2.088;2022-07-01T00:26:24;21.30;63.60
17080;DHT22;8655;57.106;-2.088;2022-07-01T00:28:49;21.30;63.60
17080;DHT22;8655;57.106;-2.088;2022-07-01T00:31:15;21.30;63.60
17080;DHT22;8655;57.106;-2.088;2022-07-01T00:33:41;21.30;63.60
17080;DHT22;8655;57.106;-2.088;2022-07-01T00:36:06;21.30;63.50
17080;DHT22;8655;57.106;-2.088;2022-07-01T00:38:32;21.30;63.60
17080;DHT22;8655;57.106;-2.088;2022-07-01T00:40:58;21.30;63.60
17080;DHT22;8655;57.106;-2.088;2022-07-01T00:43:24;21.30;63.60
17080;DHT22;8655;57.106;-2.088;2022-07-01T00:45:51;21.30;63.60
17080;DHT22;8655;57.106;-2.088;2022-07-01T00:48:19;21.30;63.50
17080;DHT22;8655;57.106;-2.088;2022-07-01T00:50:45;21.30;63.50
17080;DHT22;8655;57.106;-2.088;2022-07-01T00:53:12;21.30;63.50
17080;DHT22;8655;57.106;-2.088;2022-07-01T00:55:39;21.30;63.60
17080;DHT22;8655;57.106;-2.088;2022-07-01T00:58:05;21.30;63.60
17080;DHT22;8655;57.106;-2.088;2022-07-01T01:00:31;21.30;63.60
17080;DHT22;8655;57.106;-2.088;2022-07-01T01:02:57;21.30;63.50
17080;DHT22;8655;57.106;-2.088;2022-07-01T01:05:23;21.30;63.50
17080;DHT22;8655;57.106;-2.088;2022-07-01T01:07:51;21.30;63.50
17080;DHT22;8655;57.106;-2.088;2022-07-01T01:10:17;21.30;63.60
17080;DHT22;8655;57.106;-2.088;2022-07-01T01:12:43;21.30;63.60
17080;DHT22;8655;57.106;-2.088;2022-07-01T01:15:09;21.30;63.50
17080;DHT22;8655;57.106;-2.088;2022-07-01T01:17:36;21.20;63.40
17080;DHT22;8655;57.106;-2.088;2022-07-01T01:20:03;21.30;63.50
17080;DHT22;8655;57.106;-2.088;2022-07-01T01:22:29;21.30;63.50
17080;DHT22;8655;57.106;-2.088;2022-07-01T01:24:55;21.20;63.40
17080;DHT22;8655;57.106;-2.088;2022-07-01T01:27:23;21.20;63.40
17080;DHT22;8655;57.106;-2.088;2022-07-01T01:29:49;21.20;63.50
17080;DHT22;8655;57.106;-2.088;2022-07-01T01:32:15;21.20;63.40
17080;DHT22;8655;57.106;-2.088;2022-07-01T01:34:40;21.20;63.40
17080;DHT22;8655;57.106;-2.088;2022-07-01T01:37:07;21.20;63.40
17080;DHT22;8655;57.106;-2.088;2022-07-01T01:39:33;21.20;63.40
17080;DHT22;8655;57.106;-2.088;2022-07-01T01:42:05;21.20;63.40
17080;DHT22;8655;57.106;-2.088;2022-07-01T01:44:32;21.20;63.40
17080;DHT22;8655;57.106;-2.088;2022-07-01T01:46:57;21.20;63.40
17080;DHT22;8655;57.106;-2.088;2022-07-01T01:49:23;21.20;63.40
17080;DHT22;8655;57.106;-2.088;2022-07-01T01:51:49;21.20;63.40
17080;DHT22;8655;57.106;-2.088;2022-07-01T01:54:15;21.20;63.40
17080;DHT22;8655;57.106;-2.088;2022-07-01T01:56:41;21.20;63.40
17080;DHT22;8655;57.106;-2.088;2022-07-01T01:59:06;21.20;63.40
17080;DHT22;8655;57.106;-2.088;2022-07-01T02:01:32;21.20;63.40
17080;DHT22;8655;57.106;-2.088;2022-07-01T02:03:58;21.20;63.40
17080;DHT22;8655;57.106;-2.088;2022-07-01T02:06:25;21.20;63.40
17080;DHT22;8655;57.106;-2.088;2022-07-01T02:08:51;21.20;63.40
17080;DHT22;8655;57.106;-2.088;2022-07-01T02:11:17;21.20;63.40
17080;DHT22;8655;57.106;-2.088;2022-07-01T02:13:43;21.20;63.40
17080;DHT22;8655;57.106;-2.088;2022-07-01T02:16:10;21.20;63.40
17080;DHT22;8655;57.106;-2.088;2022-07-01T02:18:36;21.20;63.40
17080;DHT22;8655;57.106;-2.088;2022-07-01T02:21:02;21.20;63.40
17080;DHT22;8655;57.106;-2.088;2022-07-01T02:23:28;21.20;63.40
17080;DHT22;8655;57.106;-2.088;2022-07-01T02:25:55;21.20;63.40
17080;DHT22;8655;57.106;-2.088;2022-07-01T02:28:21;21.20;63.40
17080;DHT22;8655;57.106;-2.088;2022-07-01T02:30:47;21.20;63.40
17080;DHT22;8655;57.106;-2.088;2022-07-01T02:33:12;21.20;63.40
17080;DHT22;8655;57.106;-2.088;2022-07-01T02:35:40;21.10;63.30
17080;DHT22;8655;57.106;-2.088;2022-07-01T02:38:07;21.10;63.30
17080;DHT22;8655;57.106;-2.088;2022-07-01T02:40:33;21.10;63.30
17080;DHT22;8655;57.106;-2.088;2022-07-01T02:43:00;21.10;63.30
17080;DHT22;8655;57.106;-2.088;2022-07-01T02:45:26;21.10;63.30
17080;DHT22;8655;57.106;-2.088;2022-07-01T02:47:52;21.10;63.30
17080;DHT22;8655;57.106;-2.088;2022-07-01T02:50:18;21.10;63.30
17080;DHT22;8655;57.106;-2.088;2022-07-01T02:52:45;21.10;63.30
17080;DHT22;8655;57.106;-2.088;2022-07-01T02:55:12;21.10;63.30
17080;DHT22;8655;57.106;-2.088;2022-07-01T02:57:39;21.10;63.30
17080;DHT22;8655;57.106;-2.088;2022-07-01T03:00:07;21.10;63.30
17080;DHT22;8655;57.106;-2.088;2022-07-01T03:02:33;21.10;63.30
17080;DHT22;8655;57.106;-2.088;2022-07-01T03:04:59;21.10;63.30
17080;DHT22;8655;57.106;-2.088;2022-07-01T03:07:25;21.10;63.30
17080;DHT22;8655;57.106;-2.088;2022-07-01T03:09:51;21.10;63.30
17080;DHT22;8655;57.106;-2.088;2022-07-01T03:12:17;21.10;63.20
17080;DHT22;8655;57.106;-2.088;2022-07-01T03:14:58;21.10;63.30
17080;DHT22;8655;57.106;-2.088;2022-07-01T03:17:26;21.10;63.20
17080;DHT22;8655;57.106;-2.088;2022-07-01T03:19:52;21.10;63.30
17080;DHT22;8655;57.106;-2.088;2022-07-01T03:22:28;21.10;63.30
17080;DHT22;8655;57.106;-2.088;2022-07-01T03:24:54;21.10;63.30
17080;DHT22;8655;57.106;-2.088;2022-07-01T03:27:21;21.10;63.30
17080;DHT22;8655;57.106;-2.088;2022-07-01T03:29:47;21.10;63.30
17080;DHT22;8655;57.106;-2.088;2022-07-01T03:32:13;21.10;63.30
17080;DHT22;8655;57.106;-2.088;2022-07-01T03:34:42;21.10;63.30
17080;DHT22;8655;57.106;-2.088;2022-07-01T03:37:09;21.10;63.30
17080;DHT22;8655;57.106;-2.088;2022-07-01T03:39:36;21.10;63.30
17080;DHT22;8655;57.106;-2.088;2022-07-01T03:42:03;21.10;63.30
17080;DHT22;8655;57.106;-2.088;2022-07-01T03:44:29;21.10;63.20
17080;DHT22;8655;57.106;-2.088;2022-07-01T03:46:55;21.10;63.30
17080;DHT22;8655;57.106;-2.088;2022-07-01T03:49:21;21.00;63.20
17080;DHT22;8655;57.106;-2.088;2022-07-01T03:51:48;21.00;63.10
17080;DHT22;8655;57.106;-2.088;2022-07-01T03:54:14;21.00;63.10
17080;DHT22;8655;57.106;-2.088;2022-07-01T03:59:21;21.10;63.20
17080;DHT22;8655;57.106;-2.088;2022-07-01T04:01:47;21.00;63.10
17080;DHT22;8655;57.106;-2.088;2022-07-01T04:04:13;21.00;63.10
17080;DHT22;8655;57.106;-2.088;2022-07-01T04:06:39;21.00;63.10
17080;DHT22;8655;57.106;-2.088;2022-07-01T04:09:05;21.00;63.10
17080;DHT22;8655;57.106;-2.088;2022-07-01T04:11:31;21.10;63.20
17080;DHT22;8655;57.106;-2.088;2022-07-01T04:13:57;21.00;63.10
17080;DHT22;8655;57.106;-2.088;2022-07-01T04:16:23;21.00;63.10
17080;DHT22;8655;57.106;-2.088;2022-07-01T04:18:51;21.00;63.10
17080;DHT22;8655;57.106;-2.088;2022-07-01T04:21:17;21.00;63.10
17080;DHT22;8655;57.106;-2.088;2022-07-01T04:24:01;21.00;63.10
17080;DHT22;8655;57.106;-2.088;2022-07-01T04:26:27;21.00;63.10
17080;DHT22;8655;57.106;-2.088;2022-07-01T04:28:54;21.00;63.10
17080;DHT22;8655;57.106;-2.088;2022-07-01T04:31:20;21.00;63.10
17080;DHT22;8655;57.106;-2.088;2022-07-01T04:33:47;21.00;63.10
17080;DHT22;8655;57.106;-2.088;2022-07-01T04:36:17;21.00;63.10
17080;DHT22;8655;57.106;-2.088;2022-07-01T04:38:42;21.00;63.10
17080;DHT22;8655;57.106;-2.088;2022-07-01T04:41:08;21.00;63.10
17080;DHT22;8655;57.106;-2.088;2022-07-01T04:43:53;21.00;63.10
17080;DHT22;8655;57.106;-2.088;2022-07-01T04:46:18;21.00;63.10
17080;DHT22;8655;57.106;-2.088;2022-07-01T04:48:44;21.00;63.10
17080;DHT22;8655;57.106;-2.088;2022-07-01T04:51:10;21.00;63.10
17080;DHT22;8655;57.106;-2.088;2022-07-01T04:53:36;21.00;63.10
17080;DHT22;8655;57.106;-2.088;2022-07-01T04:56:01;21.00;63.10
17080;DHT22;8655;57.106;-2.088;2022-07-01T04:58:27;21.00;63.10
17080;DHT22;8655;57.106;-2.088;2022-07-01T05:00:53;21.00;63.10
17080;DHT22;8655;57.106;-2.088;2022-07-01T05:03:19;20.90;63.00
17080;DHT22;8655;57.106;-2.088;2022-07-01T05:05:44;21.00;63.10
17080;DHT22;8655;57.106;-2.088;2022-07-01T05:08:10;20.90;63.00
17080;DHT22;8655;57.106;-2.088;2022-07-01T05:10:36;21.00;63.10
17080;DHT22;8655;57.106;-2.088;2022-07-01T05:13:02;21.00;63.10
17080;DHT22;8655;57.106;-2.088;2022-07-01T05:15:28;21.00;63.10
17080;DHT22;8655;57.106;-2.088;2022-07-01T05:17:53;21.00;63.10
17080;DHT22;8655;57.106;-2.088;2022-07-01T05:20:38;20.90;63.00
17080;DHT22;8655;57.106;-2.088;2022-07-01T05:23:22;20.90;63.00
17080;DHT22;8655;57.106;-2.088;2022-07-01T05:25:48;20.90;63.00
17080;DHT22;8655;57.106;-2.088;2022-07-01T05:28:14;20.90;63.00
17080;DHT22;8655;57.106;-2.088;2022-07-01T05:30:39;20.90;63.00
17080;DHT22;8655;57.106;-2.088;2022-07-01T05:33:05;20.90;63.00
17080;DHT22;8655;57.106;-2.088;2022-07-01T05:35:31;20.90;63.00
17080;DHT22;8655;57.106;-2.088;2022-07-01T05:37:57;20.90;63.00
17080;DHT22;8655;57.106;-2.088;2022-07-01T05:40:24;20.90;63.00
17080;DHT22;8655;57.106;-2.088;2022-07-01T05:42:51;20.90;63.00
17080;DHT22;8655;57.106;-2.088;2022-07-01T05:45:17;20.90;63.00
17080;DHT22;8655;57.106;-2.088;2022-07-01T05:47:43;20.90;63.00
17080;DHT22;8655;57.106;-2.088;2022-07-01T05:50:09;20.90;63.00
17080;DHT22;8655;57.106;-2.088;2022-07-01T05:52:35;20.90;63.00
17080;DHT22;8655;57.106;-2.088;2022-07-01T05:55:01;20.90;63.00
17080;DHT22;8655;57.106;-2.088;2022-07-01T05:57:27;20.90;63.00
17080;DHT22;8655;57.106;-2.088;2022-07-01T05:59:52;20.90;63.70
17080;DHT22;8655;57.106;-2.088;2022-07-01T06:02:18;20.90;63.00
17080;DHT22;8655;57.106;-2.088;2022-07-01T06:04:44;20.90;63.00
17080;DHT22;8655;57.106;-2.088;2022-07-01T06:07:10;20.90;63.00
17080;DHT22;8655;57.106;-2.088;2022-07-01T06:09:36;20.90;63.00
17080;DHT22;8655;57.106;-2.088;2022-07-01T06:12:03;20.90;63.00
17080;DHT22;8655;57.106;-2.088;2022-07-01T06:14:29;20.90;63.00
17080;DHT22;8655;57.106;-2.088;2022-07-01T06:16:55;20.90;63.00
17080;DHT22;8655;57.106;-2.088;2022-07-01T06:19:21;20.90;63.00
17080;DHT22;8655;57.106;-2.088;2022-07-01T06:21:46;20.90;63.00
17080;DHT22;8655;57.106;-2.088;2022-07-01T06:24:12;20.80;62.90
17080;DHT22;8655;57.106;-2.088;2022-07-01T06:26:39;20.90;63.00
17080;DHT22;8655;57.106;-2.088;2022-07-01T06:29:04;20.90;63.00
17080;DHT22;8655;57.106;-2.088;2022-07-01T06:31:30;20.90;63.00
17080;DHT22;8655;57.106;-2.088;2022-07-01T06:33:58;20.80;62.90
17080;DHT22;8655;57.106;-2.088;2022-07-01T06:36:24;20.90;63.00
17080;DHT22;8655;57.106;-2.088;2022-07-01T06:38:50;20.80;62.90
17080;DHT22;8655;57.106;-2.088;2022-07-01T06:41:15;20.90;63.00
17080;DHT22;8655;57.106;-2.088;2022-07-01T06:43:54;20.90;63.00
17080;DHT22;8655;57.106;-2.088;2022-07-01T06:46:21;20.90;63.00
17080;DHT22;8655;57.106;-2.088;2022-07-01T06:48:47;20.90;63.00
17080;DHT22;8655;57.106;-2.088;2022-07-01T06:51:13;20.80;63.00
17080;DHT22;8655;57.106;-2.088;2022-07-01T06:53:39;20.80;62.90
17080;DHT22;8655;57.106;-2.088;2022-07-01T06:56:05;20.90;63.00
17080;DHT22;8655;57.106;-2.088;2022-07-01T06:58:31;20.80;62.90
17080;DHT22;8655;57.106;-2.088;2022-07-01T07:00:57;20.90;63.00
17080;DHT22;8655;57.106;-2.088;2022-07-01T07:03:23;20.90;63.00
17080;DHT22;8655;57.106;-2.088;2022-07-01T07:05:49;20.90;63.10
17080;DHT22;8655;57.106;-2.088;2022-07-01T07:08:14;20.80;63.00
17080;DHT22;8655;57.106;-2.088;2022-07-01T07:10:40;20.90;63.10
17080;DHT22;8655;57.106;-2.088;2022-07-01T07:13:06;20.80;63.00
17080;DHT22;8655;57.106;-2.088;2022-07-01T07:15:32;20.90;63.10
17080;DHT22;8655;57.106;-2.088;2022-07-01T07:17:57;20.90;63.10
17080;DHT22;8655;57.106;-2.088;2022-07-01T07:20:27;20.80;63.00
17080;DHT22;8655;57.106;-2.088;2022-07-01T07:22:53;20.80;63.00
17080;DHT22;8655;57.106;-2.088;2022-07-01T07:25:19;20.80;63.00
17080;DHT22;8655;57.106;-2.088;2022-07-01T07:27:45;20.80;62.90
17080;DHT22;8655;57.106;-2.088;2022-07-01T07:30:15;20.80;63.00
17080;DHT22;8655;57.106;-2.088;2022-07-01T07:32:41;20.90;63.10
17080;DHT22;8655;57.106;-2.088;2022-07-01T07:35:07;20.80;63.00
17080;DHT22;8655;57.106;-2.088;2022-07-01T07:37:33;20.80;62.90
17080;DHT22;8655;57.106;-2.088;2022-07-01T07:40:00;20.80;62.90
17080;DHT22;8655;57.106;-2.088;2022-07-01T07:42:26;20.80;62.90
17080;DHT22;8655;57.106;-2.088;2022-07-01T07:44:52;20.80;63.00
17080;DHT22;8655;57.106;-2.088;2022-07-01T07:47:19;20.80;63.00
17080;DHT22;8655;57.106;-2.088;2022-07-01T07:49:45;20.80;63.00
17080;DHT22;8655;57.106;-2.088;2022-07-01T07:52:11;20.80;62.90
17080;DHT22;8655;57.106;-2.088;2022-07-01T07:54:37;20.80;63.00
17080;DHT22;8655;57.106;-2.088;2022-07-01T07:57:04;20.80;63.00
17080;DHT22;8655;57.106;-2.088;2022-07-01T07:59:29;20.80;63.00
17080;DHT22;8655;57.106;-2.088;2022-07-01T08:01:55;20.80;63.00
17080;DHT22;8655;57.106;-2.088;2022-07-01T08:04:21;20.80;62.90
17080;DHT22;8655;57.106;-2.088;2022-07-01T08:06:47;20.80;63.00
17080;DHT22;8655;57.106;-2.088;2022-07-01T08:09:12;20.80;63.00
17080;DHT22;8655;57.106;-2.088;2022-07-01T08:11:38;20.80;63.00
17080;DHT22;8655;57.106;-2.088;2022-07-01T08:14:04;20.80;62.90
17080;DHT22;8655;57.106;-2.088;2022-07-01T08:16:29;20.80;63.00
17080;DHT22;8655;57.106;-2.088;2022-07-01T08:18:55;20.80;63.00
17080;DHT22;8655;57.106;-2.088;2022-07-01T08:21:21;20.80;63.00
17080;DHT22;8655;57.106;-2.088;2022-07-01T08:23:47;20.80;63.00
17080;DHT22;8655;57.106;-2.088;2022-07-01T08:26:13;20.80;63.00
17080;DHT22;8655;57.106;-2.088;2022-07-01T08:28:41;20.90;63.10
17080;DHT22;8655;57.106;-2.088;2022-07-01T08:31:07;20.80;63.00
17080;DHT22;8655;57.106;-2.088;2022-07-01T08:33:32;20.80;63.00
17080;DHT22;8655;57.106;-2.088;2022-07-01T08:35:58;20.90;63.10
17080;DHT22;8655;57.106;-2.088;2022-07-01T08:38:24;20.80;63.00
17080;DHT22;8655;57.106;-2.088;2022-07-01T08:40:50;20.90;63.10
17080;DHT22;8655;57.106;-2.088;2022-07-01T08:43:15;20.80;63.00
17080;DHT22;8655;57.106;-2.088;2022-07-01T08:45:41;20.80;63.00
17080;DHT22;8655;57.106;-2.088;2022-07-01T08:48:08;20.80;63.00
17080;DHT22;8655;57.106;-2.088;2022-07-01T08:50:39;20.80;63.00
17080;DHT22;8655;57.106;-2.088;2022-07-01T08:53:06;20.80;63.00
17080;DHT22;8655;57.106;-2.088;2022-07-01T08:55:32;20.80;63.00
17080;DHT22;8655;57.106;-2.088;2022-07-01T08:58:19;20.90;63.20
17080;DHT22;8655;57.106;-2.088;2022-07-01T09:00:45;20.80;63.00
17080;DHT22;8655;57.106;-2.088;2022-07-01T09:03:10;20.80;63.00
17080;DHT22;8655;57.106;-2.088;2022-07-01T09:05:36;20.90;63.10
17080;DHT22;8655;57.106;-2.088;2022-07-01T09:08:06;20.80;63.00
17080;DHT22;8655;57.106;-2.088;2022-07-01T09:10:33;20.90;63.00
17080;DHT22;8655;57.106;-2.088;2022-07-01T09:13:07;20.80;62.90
17080;DHT22;8655;57.106;-2.088;2022-07-01T09:15:34;20.80;63.00
17080;DHT22;8655;57.106;-2.088;2022-07-01T09:18:06;20.80;63.00
17080;DHT22;8655;57.106;-2.088;2022-07-01T09:20:36;20.80;63.00
17080;DHT22;8655;57.106;-2.088;2022-07-01T09:23:07;20.90;63.10
17080;DHT22;8655;57.106;-2.088;2022-07-01T09:25:49;20.80;63.00
17080;DHT22;8655;57.106;-2.088;2022-07-01T09:28:26;20.80;63.00
17080;DHT22;8655;57.106;-2.088;2022-07-01T09:30:53;20.80;63.00
17080;DHT22;8655;57.106;-2.088;2022-07-01T09:33:24;20.80;63.00
17080;DHT22;8655;57.106;-2.088;2022-07-01T09:35:51;20.80;63.00
17080;DHT22;8655;57.106;-2.088;2022-07-01T09:38:19;20.80;63.00
17080;DHT22;8655;57.106;-2.088;2022-07-01T09:40:55;20.80;63.00
17080;DHT22;8655;57.106;-2.088;2022-07-01T09:45:51;20.80;63.00
17080;DHT22;8655;57.106;-2.088;2022-07-01T09:48:17;20.80;63.00
17080;DHT22;8655;57.106;-2.088;2022-07-01T09:50:44;20.80;62.90
17080;DHT22;8655;57.106;-2.088;2022-07-01T09:53:10;20.80;63.00
17080;DHT22;8655;57.106;-2.088;2022-07-01T09:55:36;20.80;63.00
17080;DHT22;8655;57.106;-2.088;2022-07-01T09:58:02;20.80;63.00
17080;DHT22;8655;57.106;-2.088;2022-07-01T10:00:29;20.80;62.90
17080;DHT22;8655;57.106;-2.088;2022-07-01T10:02:58;20.90;63.10
17080;DHT22;8655;57.106;-2.088;2022-07-01T10:05:27;20.90;63.00
17080;DHT22;8655;57.106;-2.088;2022-07-01T10:13:27;20.80;63.00
17080;DHT22;8655;57.106;-2.088;2022-07-01T10:15:54;20.80;62.90
17080;DHT22;8655;57.106;-2.088;2022-07-01T10:18:23;20.90;63.00
17080;DHT22;8655;57.106;-2.088;2022-07-01T10:20:49;20.90;63.10
17080;DHT22;8655;57.106;-2.088;2022-07-01T10:23:15;20.90;63.00
17080;DHT22;8655;57.106;-2.088;2022-07-01T10:25:47;20.90;63.00
17080;DHT22;8655;57.106;-2.088;2022-07-01T10:33:32;20.80;62.90
17080;DHT22;8655;57.106;-2.088;2022-07-01T10:44:08;20.90;63.00
17080;DHT22;8655;57.106;-2.088;2022-07-01T10:46:39;20.80;62.90
17080;DHT22;8655;57.106;-2.088;2022-07-01T10:49:17;20.90;63.00
17080;DHT22;8655;57.106;-2.088;2022-07-01T10:51:53;20.80;62.90
17080;DHT22;8655;57.106;-2.088;2022-07-01T10:59:48;20.80;62.80
17080;DHT22;8655;57.106;-2.088;2022-07-01T11:02:35;20.90;63.00
17080;DHT22;8655;57.106;-2.088;2022-07-01T11:05:10;20.90;63.00
17080;DHT22;8655;57.106;-2.088;2022-07-01T11:07:38;20.90;63.00
17080;DHT22;8655;57.106;-2.088;2022-07-01T11:10:07;20.90;63.00
17080;DHT22;8655;57.106;-2.088;2022-07-01T11:12:34;20.90;62.90
17080;DHT22;8655;57.106;-2.088;2022-07-01T11:15:01;20.90;62.90
17080;DHT22;8655;57.106;-2.088;2022-07-01T11:17:33;20.90;62.90
17080;DHT22;8655;57.106;-2.088;2022-07-01T11:20:01;20.90;62.90
17080;DHT22;8655;57.106;-2.088;2022-07-01T11:22:32;20.90;62.90
17080;DHT22;8655;57.106;-2.088;2022-07-01T11:25:09;20.90;62.90
17080;DHT22;8655;57.106;-2.088;2022-07-01T11:27:37;21.00;63.00
17080;DHT22;8655;57.106;-2.088;2022-07-01T11:30:10;21.00;63.00
17080;DHT22;8655;57.106;-2.088;2022-07-01T11:32:44;20.90;62.90
17080;DHT22;8655;57.106;-2.088;2022-07-01T11:35:23;21.00;63.00
17080;DHT22;8655;57.106;-2.088;2022-07-01T11:38:11;21.00;63.00
17080;DHT22;8655;57.106;-2.088;2022-07-01T11:40:57;21.00;63.00
17080;DHT22;8655;57.106;-2.088;2022-07-01T11:43:29;21.00;63.00
17080;DHT22;8655;57.106;-2.088;2022-07-01T11:45:58;21.00;63.00
17080;DHT22;8655;57.106;-2.088;2022-07-01T11:48:29;21.00;63.00
17080;DHT22;8655;57.106;-2.088;2022-07-01T11:50:56;21.00;63.00
17080;DHT22;8655;57.106;-2.088;2022-07-01T11:53:22;21.00;63.00
17080;DHT22;8655;57.106;-2.088;2022-07-01T11:55:48;21.00;63.00
17080;DHT22;8655;57.106;-2.088;2022-07-01T11:58:14;21.00;63.00
17080;DHT22;8655;57.106;-2.088;2022-07-01T12:00:40;21.00;63.00
17080;DHT22;8655;57.106;-2.088;2022-07-01T12:03:06;21.00;63.70
17080;DHT22;8655;57.106;-2.088;2022-07-01T12:05:34;21.00;63.00
17080;DHT22;8655;57.106;-2.088;2022-07-01T12:08:00;21.00;63.00
17080;DHT22;8655;57.106;-2.088;2022-07-01T12:10:26;21.00;63.00
17080;DHT22;8655;57.106;-2.088;2022-07-01T12:12:53;21.00;63.00
17080;DHT22;8655;57.106;-2.088;2022-07-01T12:15:20;21.10;63.00
17080;DHT22;8655;57.106;-2.088;2022-07-01T12:17:46;21.00;63.00
17080;DHT22;8655;57.106;-2.088;2022-07-01T12:20:12;21.10;63.00
17080;DHT22;8655;57.106;-2.088;2022-07-01T12:22:38;21.10;63.00
17080;DHT22;8655;57.106;-2.088;2022-07-01T12:25:14;21.10;63.00
17080;DHT22;8655;57.106;-2.088;2022-07-01T12:27:43;21.10;63.00
17080;DHT22;8655;57.106;-2.088;2022-07-01T12:30:10;21.10;63.00
17080;DHT22;8655;57.106;-2.088;2022-07-01T12:32:38;21.10;63.00
17080;DHT22;8655;57.106;-2.088;2022-07-01T12:35:08;21.10;63.00
17080;DHT22;8655;57.106;-2.088;2022-07-01T12:37:53;21.10;63.00
17080;DHT22;8655;57.106;-2.088;2022-07-01T12:40:26;21.10;63.00
17080;DHT22;8655;57.106;-2.088;2022-07-01T12:42:54;21.10;63.00
17080;DHT22;8655;57.106;-2.088;2022-07-01T12:45:25;21.10;63.00
17080;DHT22;8655;57.106;-2.088;2022-07-01T12:47:59;21.20;63.20
17080;DHT22;8655;57.106;-2.088;2022-07-01T12:50:29;21.20;63.20
17080;DHT22;8655;57.106;-2.088;2022-07-01T12:53:05;21.10;63.00
17080;DHT22;8655;57.106;-2.088;2022-07-01T12:55:35;21.10;63.00
17080;DHT22;8655;57.106;-2.088;2022-07-01T12:58:07;21.10;63.00
17080;DHT22;8655;57.106;-2.088;2022-07-01T13:00:33;21.10;63.00
17080;DHT22;8655;57.106;-2.088;2022-07-01T13:03:00;21.20;63.20
17080;DHT22;8655;57.106;-2.088;2022-07-01T13:05:27;21.20;63.10
17080;DHT22;8655;57.106;-2.088;2022-07-01T13:07:53;21.20;63.20
17080;DHT22;8655;57.106;-2.088;2022-07-01T13:10:20;21.20;63.20
17080;DHT22;8655;57.106;-2.088;2022-07-01T13:12:46;21.20;63.20
17080;DHT22;8655;57.106;-2.088;2022-07-01T13:15:13;21.20;63.20
17080;DHT22;8655;57.106;-2.088;2022-07-01T13:17:39;21.20;63.20
17080;DHT22;8655;57.106;-2.088;2022-07-01T13:20:06;21.20;63.30
17080;DHT22;8655;57.106;-2.088;2022-07-01T13:22:33;21.30;63.30
17080;DHT22;8655;57.106;-2.088;2022-07-01T13:24:59;21.20;63.20
17080;DHT22;8655;57.106;-2.088;2022-07-01T13:27:25;21.20;63.20
17080;DHT22;8655;57.106;-2.088;2022-07-01T13:29:51;21.20;63.20
17080;DHT22;8655;57.106;-2.088;2022-07-01T13:32:17;21.30;63.30
17080;DHT22;8655;57.106;-2.088;2022-07-01T13:34:43;21.20;63.20
17080;DHT22;8655;57.106;-2.088;2022-07-01T13:37:09;21.20;63.20
17080;DHT22;8655;57.106;-2.088;2022-07-01T13:39:35;21.20;63.20
17080;DHT22;8655;57.106;-2.088;2022-07-01T13:42:01;21.30;63.30
17080;DHT22;8655;57.106;-2.088;2022-07-01T13:44:27;21.30;63.30
17080;DHT22;8655;57.106;-2.088;2022-07-01T13:46:52;21.30;63.30
17080;DHT22;8655;57.106;-2.088;2022-07-01T13:49:18;21.30;63.30
17080;DHT22;8655;57.106;-2.088;2022-07-01T13:51:44;21.30;63.30
17080;DHT22;8655;57.106;-2.088;2022-07-01T13:54:10;21.30;64.00
17080;DHT22;8655;57.106;-2.088;2022-07-01T13:56:36;21.30;63.30
17080;DHT22;8655;57.106;-2.088;2022-07-01T13:59:02;21.30;64.00
17080;DHT22;8655;57.106;-2.088;2022-07-01T14:01:28;21.30;63.30
17080;DHT22;8655;57.106;-2.088;2022-07-01T14:03:54;21.30;63.30
17080;DHT22;8655;57.106;-2.088;2022-07-01T14:06:20;21.30;63.30
17080;DHT22;8655;57.106;-2.088;2022-07-01T14:08:46;21.30;63.30
17080;DHT22;8655;57.106;-2.088;2022-07-01T14:11:12;21.30;63.30
17080;DHT22;8655;57.106;-2.088;2022-07-01T14:13:38;21.30;63.30
17080;DHT22;8655;57.106;-2.088;2022-07-01T14:16:06;21.30;63.30
17080;DHT22;8655;57.106;-2.088;2022-07-01T14:18:35;21.30;63.30
17080;DHT22;8655;57.106;-2.088;2022-07-01T14:21:02;21.30;63.30
17080;DHT22;8655;57.106;-2.088;2022-07-01T14:23:29;21.30;63.30
17080;DHT22;8655;57.106;-2.088;2022-07-01T14:25:54;21.30;63.30
17080;DHT22;8655;57.106;-2.088;2022-07-01T14:28:20;21.30;63.30
17080;DHT22;8655;57.106;-2.088;2022-07-01T14:30:46;21.30;63.30
17080;DHT22;8655;57.106;-2.088;2022-07-01T14:33:13;21.40;63.30
17080;DHT22;8655;57.106;-2.088;2022-07-01T14:35:38;21.30;64.00
17080;DHT22;8655;57.106;-2.088;2022-07-01T14:38:05;21.40;63.30
17080;DHT22;8655;57.106;-2.088;2022-07-01T14:40:31;21.30;63.30
17080;DHT22;8655;57.106;-2.088;2022-07-01T14:43:00;21.40;63.30
17080;DHT22;8655;57.106;-2.088;2022-07-01T14:45:26;21.40;63.30
17080;DHT22;8655;57.106;-2.088;2022-07-01T14:47:51;21.40;63.30
17080;DHT22;8655;57.106;-2.088;2022-07-01T14:50:17;21.40;63.30
17080;DHT22;8655;57.106;-2.088;2022-07-01T14:52:43;21.40;63.30
17080;DHT22;8655;57.106;-2.088;2022-07-01T14:55:09;21.40;63.30
17080;DHT22;8655;57.106;-2.088;2022-07-01T14:57:36;21.40;63.30
17080;DHT22;8655;57.106;-2.088;2022-07-01T15:00:03;21.40;63.30
17080;DHT22;8655;57.106;-2.088;2022-07-01T15:02:30;21.40;63.30
17080;DHT22;8655;57.106;-2.088;2022-07-01T15:04:56;21.40;63.30
17080;DHT22;8655;57.106;-2.088;2022-07-01T15:07:22;21.40;63.30
17080;DHT22;8655;57.106;-2.088;2022-07-01T15:09:50;21.40;63.30
17080;DHT22;8655;57.106;-2.088;2022-07-01T15:12:16;21.40;63.30
17080;DHT22;8655;57.106;-2.088;2022-07-01T15:14:44;21.40;63.30
17080;DHT22;8655;57.106;-2.088;2022-07-01T15:17:10;21.40;63.30
17080;DHT22;8655;57.106;-2.088;2022-07-01T15:19:36;21.40;63.30
17080;DHT22;8655;57.106;-2.088;2022-07-01T15:22:06;21.40;63.30
17080;DHT22;8655;57.106;-2.088;2022-07-01T15:24:33;21.50;63.40
17080;DHT22;8655;57.106;-2.088;2022-07-01T15:27:00;21.50;63.40
17080;DHT22;8655;57.106;-2.088;2022-07-01T15:29:26;21.40;63.30
17080;DHT22;8655;57.106;-2.088;2022-07-01T15:31:53;21.50;63.40
17080;DHT22;8655;57.106;-2.088;2022-07-01T15:34:19;21.50;63.40
17080;DHT22;8655;57.106;-2.088;2022-07-01T15:36:45;21.50;63.40
17080;DHT22;8655;57.106;-2.088;2022-07-01T15:39:11;21.50;63.40
17080;DHT22;8655;57.106;-2.088;2022-07-01T15:41:38;21.50;63.40
17080;DHT22;8655;57.106;-2.088;2022-07-01T15:44:05;21.50;63.40
17080;DHT22;8655;57.106;-2.088;2022-07-01T15:46:31;21.50;63.40
17080;DHT22;8655;57.106;-2.088;2022-07-01T15:48:57;21.50;63.40
17080;DHT22;8655;57.106;-2.088;2022-07-01T15:51:22;21.50;63.40
17080;DHT22;8655;57.106;-2.088;2022-07-01T15:53:50;21.50;63.40
17080;DHT22;8655;57.106;-2.088;2022-07-01T15:56:16;21.50;63.40
17080;DHT22;8655;57.106;-2.088;2022-07-01T15:58:43;21.50;63.40
17080;DHT22;8655;57.106;-2.088;2022-07-01T16:01:09;21.50;63.40